Time;durP1;ratioP1;P1;durP2;ratioP2;P2;SDS_P1;SDS_P2;PMS_P1;PMS_P2;Temp;Humidity;BMP_temperature;BMP_pressure;BME280_temperature;BME280_humidity;BME280_pressure;Samples;Min_cycle;Max_cycle;Signal;HPM_P1;HPM_P2
2023/01/16 00:05:48;;;;;;;5.00;2.70;;;;;;;3.33;100.00;98148.10;271288;1275;22636;-90
2023/01/16 00:11:50;;;;;;;3.80;2.50;;;;;;;3.36;100.00;98152.06;269346;1272;22844;-89
2023/01/16 00:18:16;;;;;;;4.50;2.30;;;;;;;3.35;100.00;98155.74;269028;1273;22671;-89
2023/01/16 00:24:18;;;;;;;6.10;2.60;;;;;;;3.28;100.00;98148.23;269222;1272;23939;-89
2023/01/16 00:30:21;;;;;;;4.00;2.40;;;;;;;3.21;100.00;98141.95;269147;1272;22657;-88
2023/01/16 00:36:22;;;;;;;4.50;2.60;;;;;;;3.12;100.00;98135.61;269054;1273;22581;-89
2023/01/16 00:42:45;;;;;;;3.70;2.00;;;;;;;3.05;100.00;98132.02;269053;1272;22639;-89
2023/01/16 00:48:46;;;;;;;4.30;2.60;;;;;;;2.95;100.00;98133.53;268987;1272;22513;-89
2023/01/16 00:54:48;;;;;;;4.60;2.70;;;;;;;2.86;100.00;98127.48;269336;1271;22364;-88
2023/01/16 01:01:22;;;;;;;4.90;2.80;;;;;;;2.74;100.00;98130.25;269448;1273;22574;-88
2023/01/16 01:07:24;;;;;;;10.40;2.20;;;;;;;2.54;100.00;98136.41;269513;1270;22341;-89
2023/01/16 01:14:19;;;;;;;4.60;2.70;;;;;;;2.39;100.00;98140.83;271656;1277;22238;-89
2023/01/16 01:20:43;;;;;;;4.80;2.80;;;;;;;2.26;100.00;98139.19;271485;1274;22647;-89
2023/01/16 01:26:46;;;;;;;6.00;3.50;;;;;;;2.13;100.00;98134.10;271065;1272;23142;-88
2023/01/16 01:32:48;;;;;;;7.30;3.70;;;;;;;1.99;100.00;98125.17;272243;1272;22371;-88
2023/01/16 01:39:15;;;;;;;8.10;3.90;;;;;;;1.86;100.00;98117.13;273271;1279;22301;-89
2023/01/16 01:45:39;;;;;;;6.80;3.50;;;;;;;1.65;100.00;98108.88;273211;1273;22211;-89
2023/01/16 01:59:58;;;;;;;11.60;6.10;;;;;;;1.33;100.00;98117.24;273170;1272;22218;-89
2023/01/16 02:07:21;;;;;;;9.70;5.80;;;;;;;1.19;100.00;98115.02;273359;1273;22218;-87
2023/01/16 02:13:38;;;;;;;9.70;6.90;;;;;;;1.07;100.00;98097.96;271079;1272;24231;-88
2023/01/16 02:19:51;;;;;;;11.20;7.60;;;;;;;0.90;100.00;98086.98;268697;1272;26589;-88
2023/01/16 02:33:18;;;;;;;11.90;6.90;;;;;;;0.69;100.00;98069.77;270666;1272;22183;-89
2023/01/16 02:40:00;;;;;;;7.40;4.40;;;;;;;0.67;100.00;98061.63;272742;1272;22370;-89
2023/01/16 02:54:11;;;;;;;6.80;4.60;;;;;;;0.64;100.00;98056.96;270608;1272;22600;-90
2023/01/16 03:00:19;;;;;;;7.40;3.30;;;;;;;0.62;100.00;98064.14;269939;1272;22636;-89
2023/01/16 03:07:10;;;;;;;7.20;4.10;;;;;;;0.64;100.00;98066.05;270133;1272;22201;-89
2023/01/16 03:14:02;;;;;;;7.40;5.20;;;;;;;0.62;100.00;98063.16;271251;1273;22909;-88
2023/01/16 03:20:07;;;;;;;8.50;5.70;;;;;;;0.48;100.00;98051.42;272594;1272;22666;-89
2023/01/16 03:26:15;;;;;;;10.10;6.40;;;;;;;0.32;100.00;98046.98;269332;1272;23716;-89
2023/01/16 03:32:48;;;;;;;10.00;5.40;;;;;;;0.23;100.00;98044.81;269497;1272;22566;-89
2023/01/16 03:38:51;;;;;;;8.80;5.70;;;;;;;0.10;100.00;98041.14;269091;1272;23493;-89
2023/01/16 03:44:57;;;;;;;13.20;8.50;;;;;;;0.08;100.00;98045.02;269641;1266;22624;-89
2023/01/16 03:51:04;;;;;;;9.10;5.80;;;;;;;0.08;100.00;98047.50;269487;1270;22584;-88
2023/01/16 03:58:01;;;;;;;11.80;6.60;;;;;;;0.05;100.00;98053.42;269703;1272;22198;-88
2023/01/16 04:04:09;;;;;;;14.10;9.90;;;;;;;-0.05;100.00;98048.48;270432;1272;24231;-87
2023/01/16 04:10:31;;;;;;;11.80;7.30;;;;;;;-0.15;100.00;98037.98;269370;1263;22583;-89
2023/01/16 04:16:33;;;;;;;16.10;9.50;;;;;;;-0.20;100.00;98022.27;269150;1272;25307;-89
2023/01/16 04:37:52;;;;;;;20.80;12.60;;;;;;;-0.17;100.00;98007.46;272275;1270;22428;-88
2023/01/16 04:43:54;;;;;;;23.70;15.00;;;;;;;-0.14;100.00;98003.52;270251;1270;22562;-90
2023/01/16 04:49:56;;;;;;;17.90;11.40;;;;;;;-0.16;100.00;98006.96;269386;1272;22807;-89
2023/01/16 04:55:58;;;;;;;23.00;14.30;;;;;;;-0.17;100.00;97997.54;269196;1272;23045;-88
2023/01/16 05:02:00;;;;;;;22.90;12.70;;;;;;;-0.11;100.00;97983.78;270237;1272;22554;-88
2023/01/16 05:08:17;;;;;;;18.20;12.00;;;;;;;-0.07;100.00;97979.86;268936;1272;24251;-90
2023/01/16 05:14:18;;;;;;;18.50;11.20;;;;;;;-0.06;100.00;97972.83;268800;1272;22579;-90
2023/01/16 05:20:21;;;;;;;17.70;10.80;;;;;;;-0.07;100.00;97966.40;268980;1272;22584;-89
2023/01/16 05:27:12;;;;;;;16.30;11.50;;;;;;;-0.09;100.00;97951.59;262926;1272;10136082;-90
2023/01/16 05:33:14;;;;;;;19.40;13.30;;;;;;;-0.08;100.00;97945.71;270645;1272;22240;-90
2023/01/16 05:39:22;;;;;;;21.80;14.40;;;;;;;-0.06;100.00;97943.55;272445;1272;22549;-89
2023/01/16 05:45:24;;;;;;;24.10;15.50;;;;;;;-0.05;100.00;97942.55;269018;1272;25280;-89
2023/01/16 05:51:41;;;;;;;21.00;13.10;;;;;;;-0.03;100.00;97930.66;269027;1272;23754;-89
2023/01/16 05:57:47;;;;;;;19.80;12.50;;;;;;;-0.00;100.00;97924.05;269694;1270;25425;-89
2023/01/16 06:03:49;;;;;;;20.00;12.40;;;;;;;0.05;100.00;97924.67;269179;1272;22212;-89
2023/01/16 06:10:40;;;;;;;24.30;15.30;;;;;;;0.00;100.00;97918.48;273086;1273;22206;-89
2023/01/16 06:17:11;;;;;;;25.20;15.80;;;;;;;0.02;100.00;97913.53;272958;1278;22289;-89
2023/01/16 06:23:33;;;;;;;52.00;23.70;;;;;;;0.09;100.00;97908.70;273275;1273;22188;-89
2023/01/16 06:30:00;;;;;;;44.80;24.00;;;;;;;0.11;100.00;97907.92;272591;1272;23015;-90
2023/01/16 06:36:26;;;;;;;52.00;28.30;;;;;;;0.16;100.00;97906.55;273286;1274;22278;-89
2023/01/16 06:50:46;;;;;;;64.30;37.20;;;;;;;0.32;100.00;97903.85;273673;1278;22226;-89
2023/01/16 06:57:37;;;;;;;43.50;23.70;;;;;;;0.32;100.00;97900.91;273310;1272;80564;-90
2023/01/16 07:12:43;;;;;;;54.80;32.50;;;;;;;0.36;100.00;97889.91;273710;1272;22882;-90
2023/01/16 07:26:54;;;;;;;50.30;29.80;;;;;;;0.40;100.00;97875.05;273652;1274;22374;-90
2023/01/16 07:32:56;;;;;;;47.60;29.30;;;;;;;0.50;100.00;97874.98;273418;1272;22207;-90
2023/01/16 07:39:38;;;;;;;47.80;28.10;;;;;;;0.58;100.00;97867.80;273319;1275;22215;-90
2023/01/16 07:46:51;;;;;;;48.60;31.60;;;;;;;0.61;100.00;97866.19;273539;1272;23238;-89
2023/01/16 07:53:39;;;;;;;45.80;30.00;;;;;;;0.65;100.00;97868.09;273295;1272;22211;-90
2023/01/16 08:00:21;;;;;;;61.10;33.80;;;;;;;0.76;100.00;97865.21;273317;1270;22808;-90
2023/01/16 08:06:23;;;;;;;52.90;31.90;;;;;;;0.87;100.00;97855.08;273107;1271;22535;-89
2023/01/16 08:12:43;;;;;;;67.70;38.70;;;;;;;0.93;100.00;97845.80;273267;1273;22244;-90
2023/01/16 08:18:54;;;;;;;73.50;42.20;;;;;;;0.94;100.00;97831.27;273379;1272;23146;-90
2023/01/16 08:25:36;;;;;;;87.60;47.70;;;;;;;1.02;100.00;97815.64;273291;1274;22351;-90
2023/01/16 08:33:14;;;;;;;82.50;46.90;;;;;;;1.12;100.00;97807.16;273288;1272;22430;-90
2023/01/16 08:39:16;;;;;;;95.00;55.20;;;;;;;1.21;100.00;97792.95;271727;1272;22308;-90
2023/01/16 08:51:41;;;;;;;82.70;52.70;;;;;;;1.34;100.00;97770.66;268874;1272;22636;-90
2023/01/16 08:57:43;;;;;;;96.50;57.30;;;;;;;1.38;100.00;97761.36;269104;1272;22549;-91
2023/01/16 09:04:25;;;;;;;98.90;57.60;;;;;;;1.40;100.00;97754.20;271509;1274;22464;-90
2023/01/16 09:10:30;;;;;;;99.30;54.10;;;;;;;1.52;100.00;97745.96;270064;1272;22581;-90
2023/01/16 09:17:09;;;;;;;45.70;28.40;;;;;;;1.65;100.00;97731.02;269003;1272;22556;-89
2023/01/16 09:23:11;;;;;;;48.00;29.20;;;;;;;1.77;100.00;97712.29;269254;1272;22352;-89
2023/01/16 09:29:12;;;;;;;39.80;24.40;;;;;;;1.86;100.00;97692.02;269173;1271;24282;-89
2023/01/16 09:35:14;;;;;;;48.20;30.70;;;;;;;2.01;100.00;97682.63;270119;1272;23166;-90
2023/01/16 09:48:23;;;;;;;26.80;16.40;;;;;;;2.33;100.00;97643.56;273063;1276;22943;-89
2023/01/16 10:01:28;;;;;;;25.20;15.50;;;;;;;2.81;100.00;97612.97;271877;1272;22917;-90
2023/01/16 10:07:49;;;;;;;27.90;16.50;;;;;;;3.02;100.00;97591.52;271814;1272;22349;-90
2023/01/16 10:14:21;;;;;;;27.00;17.60;;;;;;;3.22;100.00;97572.80;271585;1272;22977;-90
2023/01/16 10:20:41;;;;;;;31.80;18.20;;;;;;;3.45;100.00;97566.98;268804;1272;23604;-90
2023/01/16 10:27:12;;;;;;;28.90;17.00;;;;;;;3.62;100.00;97552.02;269574;1272;24215;-90
2023/01/16 10:33:23;;;;;;;29.10;18.30;;;;;;;3.72;100.00;97531.77;270117;1272;22541;-90
2023/01/16 10:39:34;;;;;;;25.60;16.50;;;;;;;3.79;100.00;97520.73;270685;1272;24237;-90
2023/01/16 10:53:19;;;;;;;20.30;13.00;;;;;;;3.90;100.00;97484.69;273180;1271;22229;-90
2023/01/16 11:00:31;;;;;;;18.90;10.70;;;;;;;4.04;100.00;97461.80;273446;1273;22405;-87
2023/01/16 11:07:13;;;;;;;16.70;9.40;;;;;;;4.14;100.00;97446.30;273193;1265;22266;-90
2023/01/16 11:21:46;;;;;;;14.00;9.10;;;;;;;4.29;100.00;97422.79;273084;1272;22357;-89
2023/01/16 11:36:52;;;;;;;19.90;11.40;;;;;;;4.46;100.00;97408.09;273061;1262;22375;-90
2023/01/16 11:51:16;;;;;;;28.00;17.00;;;;;;;4.72;100.00;97376.34;273255;1278;22215;-91
2023/01/16 11:57:48;;;;;;;33.70;16.80;;;;;;;4.82;100.00;97358.85;271053;1272;22390;-93
2023/01/16 12:04:02;;;;;;;28.80;17.50;;;;;;;4.81;100.00;97346.38;271297;1272;23504;-91
2023/01/16 12:10:21;;;;;;;32.20;17.10;;;;;;;4.74;100.00;97330.74;271216;1272;22449;-90
2023/01/16 12:16:55;;;;;;;33.30;20.00;;;;;;;4.72;100.00;97314.70;271687;1272;22408;-91
2023/01/16 12:23:34;;;;;;;33.20;18.30;;;;;;;4.74;100.00;97301.00;272446;1272;22278;-91
2023/01/16 12:30:23;;;;;;;32.50;17.30;;;;;;;4.78;100.00;97283.93;271402;1273;22328;-91
2023/01/16 12:37:12;;;;;;;34.60;18.80;;;;;;;4.80;100.00;97276.42;272360;1263;22292;-91
2023/01/16 12:43:54;;;;;;;28.10;16.40;;;;;;;4.89;100.00;97270.58;269968;1273;22573;-91
2023/01/16 12:50:46;;;;;;;29.50;17.20;;;;;;;4.97;100.00;97255.45;270603;1272;23314;-90
2023/01/16 12:57:13;;;;;;;25.10;16.20;;;;;;;4.98;100.00;97246.98;272615;1272;22365;-91
2023/01/16 13:03:59;;;;;;;25.30;15.40;;;;;;;4.94;100.00;97237.69;273073;1278;22232;-91
2023/01/16 13:18:34;;;;;;;25.40;16.50;;;;;;;4.83;100.00;97218.34;273376;1278;22217;-91
2023/01/16 13:26:02;;;;;;;;;;;;;;;4.79;100.00;97199.58;272386;1273;22566;-90
2023/01/16 13:33:17;;;;;;;25.60;16.00;;;;;;;4.67;100.00;97183.41;271614;1275;22623;-88
2023/01/16 13:40:11;;;;;;;31.00;17.70;;;;;;;4.54;100.00;97173.98;269640;1273;22534;-90
2023/01/16 13:46:15;;;;;;;30.80;19.50;;;;;;;4.43;100.00;97158.42;267782;1279;22454;-90
2023/01/16 13:52:27;;;;;;;29.30;19.10;;;;;;;4.35;100.00;97138.41;272099;1271;23412;-90
2023/01/16 13:59:25;;;;;;;28.50;17.30;;;;;;;4.29;100.00;97130.56;271397;1276;22566;-90
2023/01/16 14:05:35;;;;;;;23.20;15.80;;;;;;;4.20;100.00;97122.77;271679;1276;22317;-91
2023/01/16 14:12:12;;;;;;;26.30;16.40;;;;;;;4.11;100.00;97116.36;271752;1272;22550;-91
2023/01/16 14:18:19;;;;;;;27.50;16.90;;;;;;;4.02;100.00;97105.78;269290;1275;22583;-90
2023/01/16 14:24:32;;;;;;;27.00;17.20;;;;;;;3.95;100.00;97098.15;269334;1273;22601;-90
2023/01/16 14:30:44;;;;;;;24.60;15.60;;;;;;;3.86;100.00;97084.95;268169;1275;22654;-90
2023/01/16 14:36:50;;;;;;;29.70;17.40;;;;;;;3.80;100.00;97076.33;271928;1272;23260;-91
2023/01/16 14:56:29;;;;;;;31.80;19.40;;;;;;;3.56;100.00;97051.34;273034;1275;22236;-89
2023/01/16 15:02:38;;;;;;;27.70;16.10;;;;;;;3.48;100.00;97045.79;273020;1272;23202;-91
2023/01/16 15:09:20;;;;;;;28.50;17.70;;;;;;;3.36;100.00;97038.58;272827;1272;22213;-91
2023/01/16 15:23:36;;;;;;;32.30;19.20;;;;;;;3.10;100.00;97019.14;271005;1272;23234;-91
2023/01/16 15:29:47;;;;;;;35.20;20.70;;;;;;;2.90;100.00;97013.09;271277;1273;22588;-90
2023/01/16 15:36:35;;;;;;;36.50;21.00;;;;;;;2.79;100.00;96997.61;271339;1275;22547;-91
2023/01/16 15:49:21;;;;;;;39.90;21.70;;;;;;;2.55;100.00;96957.40;270357;1272;22376;-90
2023/01/16 15:55:26;;;;;;;62.10;37.00;;;;;;;2.44;100.00;96942.64;270346;1274;22540;-90
2023/01/16 16:01:30;;;;;;;39.50;22.10;;;;;;;2.36;100.00;96939.39;271222;1272;24700;-90
2023/01/16 16:07:32;;;;;;;32.20;18.40;;;;;;;2.33;100.00;96931.49;272897;1273;22261;-91
2023/01/16 16:13:34;;;;;;;32.60;18.90;;;;;;;2.33;100.00;96916.61;271322;1273;22943;-91
2023/01/16 16:19:58;;;;;;;31.50;17.20;;;;;;;2.36;100.00;96907.14;269439;1272;23176;-91
2023/01/16 16:26:03;;;;;;;35.60;19.20;;;;;;;2.38;100.00;96902.54;269728;1273;22537;-90
2023/01/16 16:32:11;;;;;;;35.40;19.50;;;;;;;2.38;100.00;96895.83;270683;1261;22647;-90
2023/01/16 16:38:26;;;;;;;37.40;19.90;;;;;;;2.36;100.00;96883.00;272132;1274;22189;-89
2023/01/16 16:44:36;;;;;;;36.80;21.40;;;;;;;2.37;100.00;96868.96;271803;1274;25463;-92
2023/01/16 16:50:41;;;;;;;35.40;20.40;;;;;;;2.36;100.00;96858.39;271944;1271;22240;-91
2023/01/16 16:57:39;;;;;;;;;;;;;;;;;;;;;
2023/01/16 17:04:16;;;;;;;33.60;19.80;;;;;;;2.39;100.00;96837.11;272653;1272;22642;-91
2023/01/16 17:10:56;;;;;;;37.30;20.30;;;;;;;2.41;100.00;96825.80;271374;1272;22727;-91
2023/01/16 17:16:58;;;;;;;35.60;19.40;;;;;;;2.42;100.00;96818.55;271540;1273;23602;-90
2023/01/16 17:23:00;;;;;;;30.00;17.50;;;;;;;2.44;100.00;96810.16;270834;1272;22775;-91
2023/01/16 17:29:05;;;;;;;32.90;19.20;;;;;;;2.47;100.00;96805.55;271593;1273;154956;-90
2023/01/16 17:35:17;;;;;;;32.80;17.80;;;;;;;2.47;100.00;96804.40;271178;1273;22464;-91
2023/01/16 17:48:23;;;;;;;31.60;17.20;;;;;;;2.48;100.00;96781.19;272381;1272;22418;-90
2023/01/16 17:55:52;;;;;;;31.90;21.60;;;;;;;2.51;100.00;96770.24;273410;1273;22758;-90
2023/01/16 18:02:10;;;;;;;33.80;19.40;;;;;;;2.54;100.00;96768.41;272665;1270;22541;-90
2023/01/16 18:08:13;;;;;;;33.40;20.10;;;;;;;2.57;100.00;96765.73;271547;1270;22380;-89
2023/01/16 18:21:59;;;;;;;51.20;23.70;;;;;;;2.65;100.00;96758.52;273476;1275;22233;-90
2023/01/16 18:28:01;;;;;;;97.10;41.80;;;;;;;2.66;100.00;96747.88;272325;1270;22358;-90
2023/01/16 18:34:03;;;;;;;50.60;24.90;;;;;;;2.63;100.00;96742.30;272187;1272;23121;-90
2023/01/16 19:03:01;;;;;;;34.40;19.50;;;;;;;2.58;100.00;96682.17;273273;1271;22714;-90
2023/01/16 19:26:26;;;;;;;38.90;20.90;;;;;;;2.54;100.00;96616.31;273395;1279;22229;-89
2023/01/16 20:18:53;;;;;;;58.90;31.50;;;;;;;2.56;100.00;96538.24;273185;1274;22238;-89
2023/01/16 20:25:20;;;;;;;59.50;34.00;;;;;;;2.56;100.00;96534.55;272909;1272;22203;-89
2023/01/16 20:31:47;;;;;;;;;;;;;;;2.55;100.00;96525.04;273063;1273;23330;-89
2023/01/16 20:38:09;;;;;;;72.30;40.30;;;;;;;2.54;100.00;96519.70;273048;1272;22810;-89
2023/01/16 21:26:48;;;;;;;63.60;30.40;;;;;;;2.46;100.00;96480.65;273254;1272;22768;-89
2023/01/16 21:32:53;;;;;;;38.00;21.10;;;;;;;2.40;100.00;96475.02;272550;1271;22245;-90
2023/01/16 21:40:00;;;;;;;42.30;21.50;;;;;;;2.37;100.00;96469.59;273469;1273;22692;-89
2023/01/16 21:54:47;;;;;;;40.20;21.40;;;;;;;2.22;100.00;96471.17;273384;1273;23080;-89
2023/01/16 22:01:17;;;;;;;39.00;21.80;;;;;;;2.08;100.00;96437.44;265618;1272;10002775;-88
2023/01/16 22:07:19;;;;;;;36.40;21.00;;;;;;;1.80;100.00;96435.55;272382;1273;22945;-88
2023/01/16 22:20:39;;;;;;;36.60;22.40;;;;;;;1.30;100.00;96437.61;269011;1274;22581;-88
2023/01/16 22:26:03;;;;;;;46.20;25.30;;;;;;;1.15;100.00;96435.59;270018;1273;24273;-88
2023/01/16 22:32:47;;;;;;;42.40;22.60;;;;;;;1.06;100.00;96434.14;271258;1272;22217;-88
2023/01/16 22:40:01;;;;;;;44.00;24.40;;;;;;;0.94;100.00;96450.52;272044;1273;22246;-88
2023/01/16 22:46:43;;;;;;;43.80;24.60;;;;;;;0.89;100.00;96453.34;269720;1272;22632;-89
2023/01/16 22:52:54;;;;;;;48.70;26.30;;;;;;;0.84;100.00;96444.05;269256;1272;22568;-89
2023/01/16 22:58:56;;;;;;;51.30;28.20;;;;;;;0.66;100.00;96429.29;268584;1272;23845;-89
2023/01/16 23:05:24;;;;;;;52.00;29.60;;;;;;;0.57;100.00;96417.52;268979;1272;22570;-89
2023/01/16 23:11:51;;;;;;;61.80;37.10;;;;;;;0.47;100.00;96416.27;270847;1272;22561;-89
2023/01/16 23:17:53;;;;;;;78.00;41.50;;;;;;;0.44;100.00;96402.34;268926;1272;23299;-88
2023/01/16 23:23:58;;;;;;;79.50;42.80;;;;;;;0.41;100.00;96400.61;268716;1272;24207;-89
2023/01/16 23:30:00;;;;;;;80.00;46.30;;;;;;;0.45;100.00;96407.34;268680;1272;22565;-89
2023/01/16 23:36:19;;;;;;;73.60;42.70;;;;;;;0.45;100.00;96405.96;269138;1271;23437;-88
2023/01/16 23:49:33;;;;;;;68.00;38.00;;;;;;;0.31;100.00;96404.73;272088;1272;22281;-89
2023/01/16 23:55:35;;;;;;;73.60;38.00;;;;;;;0.28;100.00;96408.18;270838;1272;23659;-88
